createdAt,value
2022-08-16T00:00:52.237Z,51.52
2022-08-16T00:03:24.056Z,52.21
2022-08-16T00:05:57.681Z,52.32
2022-08-16T00:08:36.179Z,51.88
2022-08-16T00:11:07.671Z,51.90
2022-08-16T00:13:55.613Z,51.96
2022-08-16T00:17:01.026Z,51.94
2022-08-16T00:19:23.567Z,52.13
2022-08-16T00:22:01.680Z,51.96
2022-08-16T00:24:37.014Z,51.27
2022-08-16T00:27:09.400Z,51.73
2022-08-16T00:29:41.947Z,52.08
2022-08-16T00:32:13.564Z,52.12
2022-08-16T00:34:53.142Z,52.15
2022-08-16T00:37:57.451Z,52.47
2022-08-16T00:40:34.842Z,52.46
2022-08-16T00:43:19.019Z,52.18
2022-08-16T00:46:00.000Z,52.28
2022-08-16T00:48:44.097Z,52.21
2022-08-16T00:51:18.433Z,52.87
2022-08-16T00:53:49.058Z,53.24
2022-08-16T00:56:58.098Z,52.93
2022-08-16T00:59:19.255Z,52.87
2022-08-16T01:01:48.692Z,52.69
2022-08-16T01:04:29.410Z,52.74
2022-08-16T01:07:09.401Z,52.92
2022-08-16T01:09:44.032Z,52.78
2022-08-16T01:12:26.545Z,52.69
2022-08-16T01:15:01.825Z,52.37
2022-08-16T01:17:36.892Z,52.68
2022-08-16T01:20:23.612Z,52.72
2022-08-16T01:23:08.682Z,52.82
2022-08-16T01:25:59.956Z,52.76
2022-08-16T01:28:45.623Z,52.61
2022-08-16T01:31:21.312Z,52.24
2022-08-16T01:34:04.232Z,52.44
2022-08-16T01:36:40.104Z,52.21
2022-08-16T01:39:12.739Z,52.14
2022-08-16T01:41:46.567Z,52.35
2022-08-16T01:44:18.571Z,52.03
2022-08-16T01:46:52.452Z,51.74
2022-08-16T01:49:42.888Z,52.16
2022-08-16T01:52:29.327Z,51.73
2022-08-16T01:55:15.863Z,51.71
2022-08-16T01:57:53.850Z,51.45
2022-08-16T02:00:29.450Z,51.96
2022-08-16T02:03:00.080Z,51.59
2022-08-16T02:05:30.295Z,51.83
2022-08-16T02:07:58.941Z,51.62
2022-08-16T02:10:28.168Z,50.76
2022-08-16T02:13:00.674Z,51.39
2022-08-16T02:15:31.194Z,51.29
2022-08-16T02:18:12.467Z,51.28
2022-08-16T02:20:45.381Z,51.13
2022-08-16T02:23:17.246Z,51.20
2022-08-16T02:25:52.874Z,50.89
2022-08-16T02:28:25.310Z,51.66
2022-08-16T02:30:54.536Z,51.27
2022-08-16T02:33:44.387Z,51.34
2022-08-16T02:36:49.459Z,51.30
2022-08-16T02:39:10.764Z,52.01
2022-08-16T02:41:40.764Z,51.71
2022-08-16T02:44:13.880Z,51.59
2022-08-16T02:46:50.670Z,51.93
2022-08-16T02:49:57.935Z,52.08
2022-08-16T02:52:17.178Z,51.28
2022-08-16T02:54:55.553Z,52.31
2022-08-16T02:57:26.120Z,52.25
2022-08-16T02:59:58.605Z,52.41
2022-08-16T03:02:31.906Z,52.25
2022-08-16T03:05:03.408Z,52.12
2022-08-16T03:07:37.112Z,52.54
2022-08-16T03:10:13.482Z,52.65
2022-08-16T03:12:55.356Z,52.78
2022-08-16T03:15:30.926Z,53.30
2022-08-16T03:18:02.705Z,52.72
2022-08-16T03:20:44.503Z,53.60
2022-08-16T03:23:26.370Z,52.73
2022-08-16T03:26:09.122Z,53.35
2022-08-16T03:28:43.944Z,53.38
2022-08-16T03:31:17.108Z,53.02
2022-08-16T03:33:48.381Z,53.05
2022-08-16T03:36:32.602Z,53.25
2022-08-16T03:39:14.918Z,53.50
2022-08-16T03:41:59.725Z,53.11
2022-08-16T03:44:43.451Z,53.58
2022-08-16T03:47:20.528Z,53.75
2022-08-16T03:49:54.323Z,54.40
2022-08-16T03:52:31.310Z,54.17
2022-08-16T03:55:02.878Z,53.54
2022-08-16T03:57:35.456Z,54.35
2022-08-16T04:00:20.683Z,54.34
2022-08-16T04:03:11.811Z,53.53
2022-08-16T04:05:49.159Z,52.34
2022-08-16T04:08:27.181Z,52.76
2022-08-16T04:10:59.965Z,52.48
2022-08-16T04:14:01.337Z,53.11
2022-08-16T04:16:28.764Z,53.18
2022-08-16T04:19:10.777Z,52.69
2022-08-16T04:21:47.348Z,53.17
2022-08-16T04:24:28.776Z,52.94
2022-08-16T04:27:00.387Z,52.65
2022-08-16T04:29:44.194Z,52.28
2022-08-16T04:32:19.746Z,52.21
2022-08-16T04:35:00.207Z,52.43
2022-08-16T04:37:32.764Z,52.91
2022-08-16T04:40:25.172Z,52.96
2022-08-16T04:42:57.626Z,52.75
2022-08-16T04:45:35.563Z,53.61
2022-08-16T04:48:28.557Z,53.97
2022-08-16T04:51:11.588Z,54.40
2022-08-16T04:53:56.487Z,54.57
2022-08-16T04:56:28.887Z,54.67
2022-08-16T04:58:59.402Z,54.19
2022-08-16T05:01:58.174Z,54.34
2022-08-16T05:04:23.350Z,54.25
2022-08-16T05:07:03.714Z,53.27
2022-08-16T05:09:59.443Z,53.95
2022-08-16T05:12:30.452Z,53.62
2022-08-16T05:15:05.345Z,53.03
2022-08-16T05:17:41.118Z,53.24
2022-08-16T05:20:35.573Z,53.18
2022-08-16T05:23:09.809Z,53.47
2022-08-16T05:25:48.355Z,53.73
2022-08-16T05:28:21.884Z,53.34
2022-08-16T05:30:59.907Z,53.69
2022-08-16T05:33:34.442Z,53.58
2022-08-16T05:36:14.533Z,53.78
2022-08-16T05:38:55.200Z,53.99
2022-08-16T05:41:29.551Z,53.28
2022-08-16T05:44:05.332Z,53.41
2022-08-16T05:46:57.405Z,53.61
2022-08-16T05:49:38.281Z,53.35
2022-08-16T05:52:13.669Z,54.26
2022-08-16T05:55:01.018Z,54.58
2022-08-16T05:57:37.870Z,54.93
2022-08-16T06:00:14.117Z,54.50
2022-08-16T06:02:54.495Z,55.18
2022-08-16T06:05:42.098Z,54.91
2022-08-16T06:08:32.294Z,55.03
2022-08-16T06:11:10.342Z,55.51
2022-08-16T06:13:43.610Z,55.64
2022-08-16T06:16:18.842Z,55.10
2022-08-16T06:18:52.247Z,55.11
2022-08-16T06:21:23.912Z,56.45
2022-08-16T06:24:01.142Z,56.37
2022-08-16T06:26:36.992Z,55.51
2022-08-16T06:29:09.015Z,56.14
2022-08-16T06:31:43.489Z,55.91
2022-08-16T06:34:55.236Z,56.43
2022-08-16T06:37:17.032Z,57.07
2022-08-16T06:39:50.229Z,57.21
2022-08-16T06:42:47.892Z,57.04
2022-08-16T06:45:58.800Z,57.13
2022-08-16T06:48:33.526Z,57.36
2022-08-16T06:51:09.142Z,57.49
2022-08-16T06:53:41.887Z,57.70
2022-08-16T06:56:14.758Z,57.32
2022-08-16T06:59:09.214Z,57.14
2022-08-16T07:01:54.587Z,57.08
2022-08-16T07:04:32.506Z,56.88
2022-08-16T07:07:09.690Z,57.20
2022-08-16T07:09:42.977Z,57.75
2022-08-16T07:12:15.774Z,57.19
2022-08-16T07:14:49.910Z,57.21
2022-08-16T07:17:21.899Z,56.77
2022-08-16T07:20:02.963Z,57.41
2022-08-16T07:22:59.223Z,57.36
2022-08-16T07:25:40.352Z,56.15
2022-08-16T07:28:20.707Z,55.58
2022-08-16T07:31:01.013Z,56.16
2022-08-16T07:33:51.227Z,56.08
2022-08-16T07:36:30.804Z,55.80
2022-08-16T07:39:02.081Z,55.98
2022-08-16T07:41:36.717Z,55.68
2022-08-16T07:44:16.302Z,55.27
2022-08-16T07:46:56.317Z,54.91
2022-08-16T07:49:32.605Z,54.55
2022-08-16T07:52:20.084Z,54.33
2022-08-16T07:54:53.267Z,54.37
2022-08-16T07:57:26.334Z,54.03
2022-08-16T07:59:57.113Z,53.83
2022-08-16T08:02:31.537Z,53.80
2022-08-16T08:05:03.725Z,52.88
2022-08-16T08:07:36.879Z,52.74
2022-08-16T08:10:12.612Z,53.18
2022-08-16T08:13:01.123Z,52.97
2022-08-16T08:15:34.711Z,53.00
2022-08-16T08:18:29.763Z,52.67
2022-08-16T08:21:03.810Z,52.46
2022-08-16T08:23:42.577Z,52.28
2022-08-16T08:26:17.418Z,52.81
2022-08-16T08:28:48.359Z,51.54
2022-08-16T08:31:20.121Z,51.62
2022-08-16T08:33:57.559Z,51.99
2022-08-16T08:36:33.141Z,51.39
2022-08-16T08:39:15.522Z,52.40
2022-08-16T08:41:51.315Z,52.57
2022-08-16T08:44:29.087Z,51.40
2022-08-16T08:47:12.171Z,51.23
2022-08-16T08:49:50.188Z,50.99
2022-08-16T08:52:34.359Z,51.08
2022-08-16T08:55:12.687Z,50.96
2022-08-16T08:57:48.107Z,49.38
2022-08-16T09:00:51.118Z,48.74
2022-08-16T09:03:24.142Z,48.79
2022-08-16T09:06:00.525Z,49.19
2022-08-16T09:08:35.051Z,47.85
2022-08-16T09:11:08.401Z,47.69
2022-08-16T09:13:47.179Z,47.92
2022-08-16T09:17:01.065Z,46.47
2022-08-16T09:19:11.655Z,45.53
2022-08-16T09:21:44.183Z,44.78
2022-08-16T09:24:19.849Z,44.52
2022-08-16T09:27:03.896Z,44.25
2022-08-16T09:29:44.939Z,43.64
2022-08-16T09:32:28.705Z,44.80
2022-08-16T09:35:04.700Z,45.04
2022-08-16T09:37:40.274Z,45.00
2022-08-16T09:40:32.171Z,44.51
2022-08-16T09:43:00.772Z,44.66
2022-08-16T09:45:30.623Z,44.44
2022-08-16T09:48:01.598Z,44.06
2022-08-16T09:50:37.114Z,45.01
2022-08-16T09:53:16.650Z,45.61
2022-08-16T09:55:50.346Z,46.28
2022-08-16T09:58:41.671Z,45.56
2022-08-16T10:01:14.111Z,45.06
2022-08-16T10:04:02.821Z,43.24
2022-08-16T10:06:37.557Z,43.92
2022-08-16T10:09:11.196Z,44.27
2022-08-16T10:12:11.724Z,43.89
2022-08-16T10:14:50.612Z,43.35
2022-08-16T10:17:21.669Z,43.99
2022-08-16T10:19:56.179Z,43.57
2022-08-16T10:22:28.275Z,44.07
2022-08-16T10:25:00.133Z,43.68
2022-08-16T10:27:47.383Z,43.37
2022-08-16T10:30:26.008Z,43.44
2022-08-16T10:33:00.462Z,43.63
2022-08-16T10:35:32.756Z,43.66
2022-08-16T10:38:09.611Z,43.80
2022-08-16T10:41:00.293Z,42.82
2022-08-16T10:43:31.011Z,43.16
2022-08-16T10:46:01.140Z,43.41
2022-08-16T10:48:31.266Z,43.18
2022-08-16T10:51:00.612Z,44.26
2022-08-16T10:53:32.914Z,43.52
2022-08-16T10:56:52.497Z,42.39
2022-08-16T10:59:32.388Z,42.55
2022-08-16T11:05:08.598Z,42.26
2022-08-16T11:07:51.435Z,43.18
2022-08-16T11:10:20.876Z,41.60
2022-08-16T11:12:54.906Z,43.94
2022-08-16T11:15:26.354Z,42.13
2022-08-16T11:20:48.850Z,42.52
2022-08-16T11:23:20.032Z,42.19
2022-08-16T11:26:07.572Z,42.74
2022-08-16T11:29:13.246Z,41.24
2022-08-16T11:31:34.430Z,42.46
2022-08-16T11:34:06.004Z,42.24
2022-08-16T11:36:36.880Z,41.50
2022-08-16T11:39:06.029Z,41.57
2022-08-16T11:41:39.942Z,41.91
2022-08-16T11:44:20.169Z,41.38
2022-08-16T11:46:49.751Z,41.40
2022-08-16T11:49:24.112Z,42.53
2022-08-16T11:51:54.960Z,40.71
2022-08-16T11:54:27.212Z,41.91
2022-08-16T11:57:09.406Z,41.27
2022-08-16T11:59:40.271Z,41.86
2022-08-16T12:02:31.184Z,41.00
2022-08-16T12:04:58.094Z,41.11
2022-08-16T12:07:26.054Z,41.23
2022-08-16T12:09:56.467Z,41.33
2022-08-16T12:12:24.592Z,40.44
2022-08-16T12:14:57.771Z,40.46
2022-08-16T12:17:31.474Z,39.83
2022-08-16T12:20:00.785Z,39.51
2022-08-16T12:22:29.160Z,39.55
2022-08-16T12:24:57.206Z,39.77
2022-08-16T12:27:27.902Z,39.54
2022-08-16T12:30:08.484Z,39.49
2022-08-16T12:32:53.205Z,39.40
2022-08-16T12:35:27.071Z,38.97
2022-08-16T12:38:00.193Z,39.29
2022-08-16T12:40:33.103Z,39.46
2022-08-16T12:43:04.321Z,37.47
2022-08-16T12:45:37.616Z,36.89
2022-08-16T12:48:33.741Z,36.71
2022-08-16T12:51:04.364Z,36.98
2022-08-16T12:53:40.186Z,38.92
2022-08-16T12:56:11.837Z,37.67
2022-08-16T12:58:48.857Z,37.96
2022-08-16T13:01:22.637Z,37.12
2022-08-16T13:04:11.381Z,37.27
2022-08-16T13:06:43.219Z,37.64
2022-08-16T13:09:26.199Z,38.86
2022-08-16T13:12:05.547Z,38.29
2022-08-16T13:14:39.554Z,39.04
2022-08-16T13:17:18.929Z,40.54
2022-08-16T13:20:11.386Z,40.49
2022-08-16T13:22:44.347Z,41.54
2022-08-16T13:25:21.249Z,40.94
2022-08-16T13:28:14.748Z,41.41
2022-08-16T13:30:49.782Z,40.19
2022-08-16T13:33:29.726Z,40.68
2022-08-16T13:36:03.546Z,41.03
2022-08-16T13:38:37.642Z,42.28
2022-08-16T13:41:09.921Z,41.93
2022-08-16T13:43:40.640Z,40.55
2022-08-16T13:46:10.783Z,40.11
2022-08-16T13:48:44.366Z,40.24
2022-08-16T13:51:17.835Z,40.18
2022-08-16T13:53:59.186Z,38.80
2022-08-16T13:56:37.640Z,36.81
2022-08-16T13:59:19.243Z,36.69
2022-08-16T14:01:54.930Z,36.91
2022-08-16T14:04:31.243Z,37.47
2022-08-16T14:07:04.221Z,35.95
2022-08-16T14:09:34.920Z,35.91
2022-08-16T14:12:09.705Z,35.37
2022-08-16T14:14:39.030Z,34.82
2022-08-16T14:17:09.781Z,34.89
2022-08-16T14:19:44.498Z,34.22
2022-08-16T14:22:31.477Z,34.29
2022-08-16T14:25:10.086Z,35.29
2022-08-16T14:27:41.954Z,36.35
2022-08-16T14:30:15.819Z,36.65
2022-08-16T14:32:50.926Z,36.47
2022-08-16T14:35:36.612Z,35.38
2022-08-16T14:38:18.353Z,35.79
2022-08-16T14:40:55.568Z,36.24
2022-08-16T14:43:29.891Z,36.16
2022-08-16T14:46:01.896Z,37.00
2022-08-16T14:48:38.349Z,37.15
2022-08-16T14:51:09.058Z,36.81
2022-08-16T14:53:39.201Z,36.61
2022-08-16T14:56:38.143Z,37.39
2022-08-16T14:59:08.539Z,36.79
2022-08-16T15:01:52.122Z,37.36
2022-08-16T15:04:39.849Z,37.44
2022-08-16T15:07:22.034Z,37.28
2022-08-16T15:10:00.525Z,37.27
2022-08-16T15:12:36.275Z,37.20
2022-08-16T15:15:12.315Z,36.77
2022-08-16T15:17:56.159Z,36.57
2022-08-16T15:20:30.515Z,37.02
2022-08-16T15:23:03.787Z,36.81
2022-08-16T15:25:41.019Z,36.74
2022-08-16T15:28:31.293Z,35.35
2022-08-16T15:31:03.953Z,35.00
2022-08-16T15:33:39.896Z,33.80
2022-08-16T15:36:18.777Z,33.45
2022-08-16T15:39:06.762Z,33.09
2022-08-16T15:42:05.751Z,33.43
2022-08-16T15:44:44.627Z,33.94
2022-08-16T15:47:22.140Z,33.83
2022-08-16T15:49:58.101Z,34.01
2022-08-16T15:52:31.078Z,34.32
2022-08-16T15:55:12.944Z,34.07
2022-08-16T15:57:52.009Z,33.68
2022-08-16T16:00:23.140Z,33.15
2022-08-16T16:03:04.382Z,32.31
2022-08-16T16:05:41.169Z,30.06
2022-08-16T16:08:13.544Z,29.76
2022-08-16T16:10:55.348Z,30.28
2022-08-16T16:13:24.839Z,29.80
2022-08-16T16:15:57.474Z,29.62
2022-08-16T16:18:30.050Z,30.18
2022-08-16T16:21:02.735Z,31.14
2022-08-16T16:23:34.856Z,30.74
2022-08-16T16:26:07.248Z,31.06
2022-08-16T16:29:05.766Z,30.99
2022-08-16T16:31:28.279Z,31.88
2022-08-16T16:34:07.726Z,32.25
2022-08-16T16:36:39.868Z,31.70
2022-08-16T16:39:12.464Z,31.35
2022-08-16T16:41:43.975Z,32.05
2022-08-16T16:44:18.289Z,32.56
2022-08-16T16:47:00.415Z,33.33
2022-08-16T16:49:30.830Z,33.88
2022-08-16T16:52:06.624Z,34.30
2022-08-16T16:54:37.137Z,35.29
2022-08-16T16:57:29.241Z,35.49
2022-08-16T16:59:58.132Z,35.31
2022-08-16T17:02:41.054Z,35.29
2022-08-16T17:05:17.618Z,36.95
2022-08-16T17:07:48.499Z,36.70
2022-08-16T17:10:46.618Z,37.12
2022-08-16T17:13:08.864Z,38.21
2022-08-16T17:15:39.598Z,38.60
2022-08-16T17:19:14.317Z,39.00
2022-08-16T17:21:01.813Z,38.85
2022-08-16T17:23:58.531Z,39.02
2022-08-16T17:26:30.180Z,39.34
2022-08-16T17:29:10.852Z,40.02
2022-08-16T17:31:43.426Z,40.24
2022-08-16T17:34:32.147Z,40.95
2022-08-16T17:37:04.946Z,41.32
2022-08-16T17:39:57.220Z,41.24
2022-08-16T17:42:27.311Z,40.91
2022-08-16T17:45:03.539Z,41.28
2022-08-16T17:47:41.115Z,41.54
2022-08-16T17:50:11.150Z,41.61
2022-08-16T17:52:49.141Z,42.07
2022-08-16T17:55:24.955Z,42.10
2022-08-16T17:57:56.403Z,41.79
2022-08-16T18:00:29.085Z,42.41
2022-08-16T18:02:58.532Z,41.94
2022-08-16T18:05:28.443Z,42.40
2022-08-16T18:07:56.674Z,42.50
2022-08-16T18:10:33.121Z,42.83
2022-08-16T18:13:08.230Z,42.48
2022-08-16T18:15:40.278Z,42.67
2022-08-16T18:18:08.463Z,42.42
2022-08-16T18:20:54.581Z,42.90
2022-08-16T18:23:24.980Z,43.29
2022-08-16T18:25:55.274Z,43.07
2022-08-16T18:28:24.501Z,43.15
2022-08-16T18:31:00.274Z,43.35
2022-08-16T18:33:29.927Z,44.31
2022-08-16T18:35:59.124Z,45.80
2022-08-16T18:38:27.209Z,46.10
2022-08-16T18:40:55.575Z,46.96
2022-08-16T18:43:54.666Z,47.61
2022-08-16T18:46:14.798Z,48.51
2022-08-16T18:48:42.859Z,49.17
2022-08-16T18:51:17.489Z,49.48
2022-08-16T18:53:49.669Z,50.37
2022-08-16T18:56:17.858Z,51.13
2022-08-16T18:58:46.115Z,51.29
2022-08-16T19:01:15.974Z,52.05
2022-08-16T19:03:44.580Z,52.33
2022-08-16T19:06:15.125Z,52.53
2022-08-16T19:08:45.227Z,52.47
2022-08-16T19:11:19.077Z,52.57
2022-08-16T19:13:47.327Z,52.72
2022-08-16T19:16:17.668Z,52.68
2022-08-16T19:18:51.227Z,52.72
2022-08-16T19:21:20.455Z,52.34
2022-08-16T19:23:49.551Z,52.43
2022-08-16T19:26:25.939Z,52.19
2022-08-16T19:28:58.887Z,52.59
2022-08-16T19:31:33.140Z,53.53
2022-08-16T19:34:05.833Z,54.41
2022-08-16T19:36:39.335Z,54.54
2022-08-16T19:39:12.093Z,55.16
2022-08-16T19:41:43.174Z,55.22
2022-08-16T19:44:12.287Z,55.60
2022-08-16T19:46:45.066Z,55.63
2022-08-16T19:49:16.559Z,55.19
2022-08-16T19:51:48.545Z,54.93
2022-08-16T19:54:16.808Z,54.56
2022-08-16T19:56:46.496Z,53.97
2022-08-16T19:59:19.729Z,53.45
2022-08-16T20:01:52.652Z,52.84
2022-08-16T20:04:22.176Z,52.35
2022-08-16T20:06:50.724Z,52.61
2022-08-16T20:09:21.595Z,53.33
2022-08-16T20:11:52.265Z,53.64
2022-08-16T20:14:25.118Z,53.66
2022-08-16T20:17:00.409Z,53.17
2022-08-16T20:19:36.238Z,52.52
2022-08-16T20:22:51.757Z,51.95
2022-08-16T20:25:28.046Z,51.54
2022-08-16T20:27:58.619Z,51.88
2022-08-16T20:30:29.969Z,52.56
2022-08-16T20:33:01.173Z,52.64
2022-08-16T20:35:33.299Z,53.15
2022-08-16T20:38:05.569Z,52.98
2022-08-16T20:40:35.879Z,53.64
2022-08-16T20:43:08.831Z,53.18
2022-08-16T20:45:39.366Z,52.49
2022-08-16T20:48:15.347Z,52.52
2022-08-16T20:50:44.093Z,52.78
2022-08-16T20:53:14.537Z,52.25
2022-08-16T20:55:46.474Z,51.62
2022-08-16T20:58:17.946Z,51.85
2022-08-16T21:00:48.151Z,51.16
2022-08-16T21:03:19.315Z,52.05
2022-08-16T21:05:47.636Z,51.49
2022-08-16T21:08:50.386Z,51.64
2022-08-16T21:11:09.085Z,50.32
2022-08-16T21:13:42.504Z,50.62
2022-08-16T21:16:11.787Z,50.92
2022-08-16T21:18:41.924Z,50.87
2022-08-16T21:21:12.379Z,51.13
2022-08-16T21:23:42.215Z,51.80
2022-08-16T21:26:11.220Z,52.07
2022-08-16T21:28:50.721Z,52.29
2022-08-16T21:31:27.984Z,52.29
2022-08-16T21:34:06.857Z,52.24
2022-08-16T21:36:38.355Z,51.42
2022-08-16T21:39:11.160Z,51.02
2022-08-16T21:41:41.258Z,51.49
2022-08-16T21:44:12.761Z,51.04
2022-08-16T21:46:44.125Z,51.65
2022-08-16T21:49:18.299Z,51.58
2022-08-16T21:51:47.154Z,52.00
2022-08-16T21:54:20.513Z,52.03
2022-08-16T21:56:51.639Z,52.40
2022-08-16T21:59:20.009Z,52.52
2022-08-16T22:01:57.447Z,52.08
2022-08-16T22:04:39.130Z,52.03
2022-08-16T22:07:11.535Z,51.95
2022-08-16T22:09:41.752Z,51.39
2022-08-16T22:12:21.329Z,51.50
2022-08-16T22:14:50.141Z,51.66
2022-08-16T22:17:18.419Z,51.44
2022-08-16T22:19:48.789Z,51.16
2022-08-16T22:22:18.125Z,51.38
2022-08-16T22:24:47.747Z,50.87
2022-08-16T22:27:17.748Z,51.33
2022-08-16T22:29:48.354Z,51.00
2022-08-16T22:32:16.712Z,51.14
2022-08-16T22:34:44.693Z,50.53
2022-08-16T22:37:15.194Z,50.60
2022-08-16T22:39:44.042Z,50.62
2022-08-16T22:42:12.446Z,50.36
2022-08-16T22:44:53.888Z,50.43
2022-08-16T22:47:27.616Z,49.93
2022-08-16T22:50:08.951Z,49.52
2022-08-16T22:52:56.284Z,49.77
2022-08-16T22:55:27.311Z,49.94
2022-08-16T22:57:55.627Z,50.00
2022-08-16T23:00:26.647Z,50.98
2022-08-16T23:02:56.549Z,51.53
2022-08-16T23:05:24.864Z,52.30
2022-08-16T23:07:54.332Z,51.93
2022-08-16T23:10:23.833Z,52.05
2022-08-16T23:12:54.997Z,51.26
2022-08-16T23:15:24.390Z,51.32
2022-08-16T23:17:55.133Z,51.55
2022-08-16T23:20:27.125Z,51.34
2022-08-16T23:23:19.968Z,51.18
2022-08-16T23:25:51.998Z,50.94
2022-08-16T23:28:32.751Z,50.98
2022-08-16T23:31:04.708Z,51.02
2022-08-16T23:33:34.208Z,51.09
2022-08-16T23:36:03.208Z,51.08
2022-08-16T23:38:39.077Z,50.61
2022-08-16T23:41:11.301Z,50.64
2022-08-16T23:43:43.762Z,50.19
2022-08-16T23:46:15.544Z,50.71
2022-08-16T23:49:58.570Z,50.57
2022-08-16T23:51:35.373Z,50.69
2022-08-16T23:54:10.192Z,50.91
2022-08-16T23:56:40.652Z,50.55
2022-08-16T23:59:09.206Z,50.73
